sensor_id;sensor_type;location;lat;lon;timestamp;P1;durP1;ratioP1;P2;durP2;ratioP2
75129;SDS011;63703;44.716;37.846;2022-10-12T00:01:23;1.85;;;0.85;;
75129;SDS011;63703;44.716;37.846;2022-10-12T00:03:49;2.05;;;0.70;;
75129;SDS011;63703;44.716;37.846;2022-10-12T00:06:16;2.83;;;0.80;;
75129;SDS011;63703;44.716;37.846;2022-10-12T00:08:44;1.90;;;0.88;;
75129;SDS011;63703;44.716;37.846;2022-10-12T00:11:12;2.75;;;1.48;;
75129;SDS011;63703;44.716;37.846;2022-10-12T00:13:40;1.92;;;0.93;;
75129;SDS011;63703;44.716;37.846;2022-10-12T00:16:06;3.03;;;0.73;;
75129;SDS011;63703;44.716;37.846;2022-10-12T00:18:34;2.67;;;1.70;;
75129;SDS011;63703;44.716;37.846;2022-10-12T00:21:04;2.15;;;0.35;;
75129;SDS011;63703;44.716;37.846;2022-10-12T00:23:32;1.73;;;0.45;;
75129;SDS011;63703;44.716;37.846;2022-10-12T00:26:02;2.13;;;1.55;;
75129;SDS011;63703;44.716;37.846;2022-10-12T00:28:30;2.72;;;1.00;;
75129;SDS011;63703;44.716;37.846;2022-10-12T00:30:56;4.63;;;1.05;;
75129;SDS011;63703;44.716;37.846;2022-10-12T00:33:22;5.47;;;0.73;;
75129;SDS011;63703;44.716;37.846;2022-10-12T00:35:48;3.47;;;0.63;;
75129;SDS011;63703;44.716;37.846;2022-10-12T00:38:14;3.25;;;1.17;;
75129;SDS011;63703;44.716;37.846;2022-10-12T00:40:40;3.88;;;1.10;;
75129;SDS011;63703;44.716;37.846;2022-10-12T00:46:17;1.60;;;0.60;;
75129;SDS011;63703;44.716;37.846;2022-10-12T00:48:57;1.95;;;0.63;;
75129;SDS011;63703;44.716;37.846;2022-10-12T00:51:27;1.83;;;0.55;;
75129;SDS011;63703;44.716;37.846;2022-10-12T00:53:55;2.17;;;1.27;;
75129;SDS011;63703;44.716;37.846;2022-10-12T00:56:29;4.97;;;1.27;;
75129;SDS011;63703;44.716;37.846;2022-10-12T00:58:58;1.55;;;0.88;;
75129;SDS011;63703;44.716;37.846;2022-10-12T01:01:27;4.47;;;1.05;;
75129;SDS011;63703;44.716;37.846;2022-10-12T01:03:54;2.08;;;1.55;;
75129;SDS011;63703;44.716;37.846;2022-10-12T01:06:20;5.35;;;0.47;;
75129;SDS011;63703;44.716;37.846;2022-10-12T01:08:46;2.63;;;1.50;;
75129;SDS011;63703;44.716;37.846;2022-10-12T01:11:12;3.53;;;0.75;;
75129;SDS011;63703;44.716;37.846;2022-10-12T01:13:38;3.63;;;1.25;;
75129;SDS011;63703;44.716;37.846;2022-10-12T01:16:18;5.30;;;2.17;;
75129;SDS011;63703;44.716;37.846;2022-10-12T01:19:00;4.10;;;1.20;;
75129;SDS011;63703;44.716;37.846;2022-10-12T01:21:44;3.10;;;1.38;;
75129;SDS011;63703;44.716;37.846;2022-10-12T01:26:56;3.42;;;0.80;;
75129;SDS011;63703;44.716;37.846;2022-10-12T01:29:35;3.65;;;0.77;;
75129;SDS011;63703;44.716;37.846;2022-10-12T01:35:00;2.22;;;0.90;;
75129;SDS011;63703;44.716;37.846;2022-10-12T01:40:19;3.90;;;0.77;;
75129;SDS011;63703;44.716;37.846;2022-10-12T01:42:59;1.75;;;0.30;;
75129;SDS011;63703;44.716;37.846;2022-10-12T01:45:26;3.45;;;1.15;;
75129;SDS011;63703;44.716;37.846;2022-10-12T01:47:52;2.10;;;0.88;;
75129;SDS011;63703;44.716;37.846;2022-10-12T01:50:21;1.65;;;0.80;;
75129;SDS011;63703;44.716;37.846;2022-10-12T02:03:47;2.17;;;0.55;;
75129;SDS011;63703;44.716;37.846;2022-10-12T02:06:36;5.80;;;0.50;;
75129;SDS011;63703;44.716;37.846;2022-10-12T02:09:09;3.20;;;0.90;;
75129;SDS011;63703;44.716;37.846;2022-10-12T02:11:47;2.63;;;1.17;;
75129;SDS011;63703;44.716;37.846;2022-10-12T02:14:18;4.00;;;1.25;;
75129;SDS011;63703;44.716;37.846;2022-10-12T02:16:47;3.45;;;1.75;;
75129;SDS011;63703;44.716;37.846;2022-10-12T02:19:16;4.35;;;0.63;;
75129;SDS011;63703;44.716;37.846;2022-10-12T02:21:47;3.40;;;2.60;;
75129;SDS011;63703;44.716;37.846;2022-10-12T02:24:14;5.28;;;1.13;;
75129;SDS011;63703;44.716;37.846;2022-10-12T02:26:42;9.18;;;0.63;;
75129;SDS011;63703;44.716;37.846;2022-10-12T02:29:13;2.92;;;0.88;;
75129;SDS011;63703;44.716;37.846;2022-10-12T02:34:18;8.32;;;1.00;;
75129;SDS011;63703;44.716;37.846;2022-10-12T02:40:03;7.13;;;1.35;;
75129;SDS011;63703;44.716;37.846;2022-10-12T02:42:23;4.53;;;2.42;;
75129;SDS011;63703;44.716;37.846;2022-10-12T02:44:53;8.43;;;1.05;;
75129;SDS011;63703;44.716;37.846;2022-10-12T02:47:22;5.72;;;1.15;;
75129;SDS011;63703;44.716;37.846;2022-10-12T02:49:50;7.25;;;1.92;;
75129;SDS011;63703;44.716;37.846;2022-10-12T02:52:17;8.02;;;0.88;;
75129;SDS011;63703;44.716;37.846;2022-10-12T02:54:43;5.90;;;1.80;;
75129;SDS011;63703;44.716;37.846;2022-10-12T02:57:10;9.20;;;1.60;;
75129;SDS011;63703;44.716;37.846;2022-10-12T02:59:36;4.75;;;0.93;;
75129;SDS011;63703;44.716;37.846;2022-10-12T03:02:02;3.13;;;1.23;;
75129;SDS011;63703;44.716;37.846;2022-10-12T03:04:27;5.38;;;1.17;;
75129;SDS011;63703;44.716;37.846;2022-10-12T03:06:53;11.13;;;1.95;;
75129;SDS011;63703;44.716;37.846;2022-10-12T03:09:19;6.07;;;1.98;;
75129;SDS011;63703;44.716;37.846;2022-10-12T03:11:45;5.30;;;0.88;;
75129;SDS011;63703;44.716;37.846;2022-10-12T03:14:12;6.97;;;1.25;;
75129;SDS011;63703;44.716;37.846;2022-10-12T03:16:39;4.85;;;1.00;;
75129;SDS011;63703;44.716;37.846;2022-10-12T03:19:06;4.82;;;1.15;;
75129;SDS011;63703;44.716;37.846;2022-10-12T03:21:32;6.70;;;1.05;;
75129;SDS011;63703;44.716;37.846;2022-10-12T03:23:58;2.97;;;0.90;;
75129;SDS011;63703;44.716;37.846;2022-10-12T03:26:24;3.15;;;1.10;;
75129;SDS011;63703;44.716;37.846;2022-10-12T03:28:50;4.25;;;1.25;;
75129;SDS011;63703;44.716;37.846;2022-10-12T03:31:16;16.95;;;1.77;;
75129;SDS011;63703;44.716;37.846;2022-10-12T03:33:42;6.07;;;1.00;;
75129;SDS011;63703;44.716;37.846;2022-10-12T03:36:08;7.82;;;2.00;;
75129;SDS011;63703;44.716;37.846;2022-10-12T03:38:39;3.83;;;0.47;;
75129;SDS011;63703;44.716;37.846;2022-10-12T03:41:06;5.15;;;1.00;;
75129;SDS011;63703;44.716;37.846;2022-10-12T03:43:32;4.10;;;1.80;;
75129;SDS011;63703;44.716;37.846;2022-10-12T03:45:58;7.55;;;1.25;;
75129;SDS011;63703;44.716;37.846;2022-10-12T03:48:24;8.40;;;1.42;;
75129;SDS011;63703;44.716;37.846;2022-10-12T03:50:51;8.95;;;1.23;;
75129;SDS011;63703;44.716;37.846;2022-10-12T03:53:17;6.55;;;0.70;;
75129;SDS011;63703;44.716;37.846;2022-10-12T03:55:44;3.67;;;1.10;;
75129;SDS011;63703;44.716;37.846;2022-10-12T03:58:11;3.00;;;0.95;;
75129;SDS011;63703;44.716;37.846;2022-10-12T04:00:37;4.95;;;0.98;;
75129;SDS011;63703;44.716;37.846;2022-10-12T04:03:03;6.07;;;1.70;;
75129;SDS011;63703;44.716;37.846;2022-10-12T04:05:29;3.20;;;1.45;;
75129;SDS011;63703;44.716;37.846;2022-10-12T04:07:55;5.05;;;1.17;;
75129;SDS011;63703;44.716;37.846;2022-10-12T04:10:21;4.57;;;0.77;;
75129;SDS011;63703;44.716;37.846;2022-10-12T04:12:48;5.82;;;1.05;;
75129;SDS011;63703;44.716;37.846;2022-10-12T04:15:14;2.60;;;1.20;;
75129;SDS011;63703;44.716;37.846;2022-10-12T04:17:42;4.65;;;1.58;;
75129;SDS011;63703;44.716;37.846;2022-10-12T04:20:09;2.97;;;1.38;;
75129;SDS011;63703;44.716;37.846;2022-10-12T04:22:37;4.05;;;1.33;;
75129;SDS011;63703;44.716;37.846;2022-10-12T04:25:03;6.13;;;1.30;;
75129;SDS011;63703;44.716;37.846;2022-10-12T04:27:30;4.13;;;1.10;;
75129;SDS011;63703;44.716;37.846;2022-10-12T04:29:55;5.70;;;0.65;;
75129;SDS011;63703;44.716;37.846;2022-10-12T04:32:21;7.63;;;1.17;;
75129;SDS011;63703;44.716;37.846;2022-10-12T04:34:47;4.95;;;0.95;;
75129;SDS011;63703;44.716;37.846;2022-10-12T04:37:13;6.60;;;1.15;;
75129;SDS011;63703;44.716;37.846;2022-10-12T04:39:39;2.95;;;0.60;;
75129;SDS011;63703;44.716;37.846;2022-10-12T04:42:05;4.75;;;1.58;;
75129;SDS011;63703;44.716;37.846;2022-10-12T04:44:34;3.75;;;1.30;;
75129;SDS011;63703;44.716;37.846;2022-10-12T04:47:00;3.63;;;2.00;;
75129;SDS011;63703;44.716;37.846;2022-10-12T04:49:26;4.20;;;1.38;;
75129;SDS011;63703;44.716;37.846;2022-10-12T04:51:52;7.30;;;1.63;;
75129;SDS011;63703;44.716;37.846;2022-10-12T04:54:18;4.22;;;1.98;;
75129;SDS011;63703;44.716;37.846;2022-10-12T04:56:44;6.88;;;3.15;;
75129;SDS011;63703;44.716;37.846;2022-10-12T04:59:09;3.13;;;0.93;;
75129;SDS011;63703;44.716;37.846;2022-10-12T05:01:35;3.35;;;1.70;;
75129;SDS011;63703;44.716;37.846;2022-10-12T05:04:01;7.28;;;0.98;;
75129;SDS011;63703;44.716;37.846;2022-10-12T05:06:27;4.45;;;0.80;;
75129;SDS011;63703;44.716;37.846;2022-10-12T05:08:53;4.97;;;1.63;;
75129;SDS011;63703;44.716;37.846;2022-10-12T05:11:19;6.85;;;1.00;;
75129;SDS011;63703;44.716;37.846;2022-10-12T05:13:46;6.45;;;0.95;;
75129;SDS011;63703;44.716;37.846;2022-10-12T05:16:12;4.90;;;0.70;;
75129;SDS011;63703;44.716;37.846;2022-10-12T05:18:38;5.45;;;1.20;;
75129;SDS011;63703;44.716;37.846;2022-10-12T05:21:04;9.65;;;1.50;;
75129;SDS011;63703;44.716;37.846;2022-10-12T05:23:30;11.15;;;1.67;;
75129;SDS011;63703;44.716;37.846;2022-10-12T05:25:56;16.05;;;2.58;;
75129;SDS011;63703;44.716;37.846;2022-10-12T05:28:22;20.58;;;2.05;;
75129;SDS011;63703;44.716;37.846;2022-10-12T05:30:49;12.60;;;2.47;;
75129;SDS011;63703;44.716;37.846;2022-10-12T05:33:16;10.43;;;2.42;;
75129;SDS011;63703;44.716;37.846;2022-10-12T05:35:42;9.70;;;3.00;;
75129;SDS011;63703;44.716;37.846;2022-10-12T05:38:09;14.35;;;2.60;;
75129;SDS011;63703;44.716;37.846;2022-10-12T05:40:35;10.38;;;2.83;;
75129;SDS011;63703;44.716;37.846;2022-10-12T05:43:01;11.30;;;2.13;;
75129;SDS011;63703;44.716;37.846;2022-10-12T05:45:27;5.72;;;2.05;;
75129;SDS011;63703;44.716;37.846;2022-10-12T05:47:52;17.75;;;2.70;;
75129;SDS011;63703;44.716;37.846;2022-10-12T05:50:18;9.98;;;2.80;;
75129;SDS011;63703;44.716;37.846;2022-10-12T05:52:45;16.65;;;3.58;;
75129;SDS011;63703;44.716;37.846;2022-10-12T05:55:12;12.93;;;2.72;;
75129;SDS011;63703;44.716;37.846;2022-10-12T05:57:38;10.40;;;2.90;;
75129;SDS011;63703;44.716;37.846;2022-10-12T06:00:05;7.75;;;2.28;;
75129;SDS011;63703;44.716;37.846;2022-10-12T06:02:35;7.65;;;1.50;;
75129;SDS011;63703;44.716;37.846;2022-10-12T06:05:01;13.45;;;1.85;;
75129;SDS011;63703;44.716;37.846;2022-10-12T06:07:27;6.43;;;1.88;;
75129;SDS011;63703;44.716;37.846;2022-10-12T06:09:53;10.13;;;1.80;;
75129;SDS011;63703;44.716;37.846;2022-10-12T06:12:19;4.40;;;1.05;;
75129;SDS011;63703;44.716;37.846;2022-10-12T06:14:45;6.55;;;1.60;;
75129;SDS011;63703;44.716;37.846;2022-10-12T06:17:11;5.28;;;0.98;;
75129;SDS011;63703;44.716;37.846;2022-10-12T06:19:37;9.70;;;1.35;;
75129;SDS011;63703;44.716;37.846;2022-10-12T06:22:03;9.13;;;2.08;;
75129;SDS011;63703;44.716;37.846;2022-10-12T06:24:29;10.48;;;1.65;;
75129;SDS011;63703;44.716;37.846;2022-10-12T06:26:55;7.15;;;1.30;;
75129;SDS011;63703;44.716;37.846;2022-10-12T06:29:21;6.13;;;1.70;;
75129;SDS011;63703;44.716;37.846;2022-10-12T06:31:48;10.15;;;1.75;;
75129;SDS011;63703;44.716;37.846;2022-10-12T06:34:15;10.38;;;1.90;;
75129;SDS011;63703;44.716;37.846;2022-10-12T06:36:41;14.32;;;2.42;;
75129;SDS011;63703;44.716;37.846;2022-10-12T06:39:07;10.65;;;2.70;;
75129;SDS011;63703;44.716;37.846;2022-10-12T06:41:34;5.82;;;1.33;;
75129;SDS011;63703;44.716;37.846;2022-10-12T06:44:04;10.73;;;1.73;;
75129;SDS011;63703;44.716;37.846;2022-10-12T06:46:30;7.20;;;1.52;;
75129;SDS011;63703;44.716;37.846;2022-10-12T06:48:56;8.35;;;0.95;;
75129;SDS011;63703;44.716;37.846;2022-10-12T06:51:22;3.17;;;0.70;;
75129;SDS011;63703;44.716;37.846;2022-10-12T06:53:48;5.40;;;1.10;;
75129;SDS011;63703;44.716;37.846;2022-10-12T06:56:14;4.95;;;1.25;;
75129;SDS011;63703;44.716;37.846;2022-10-12T06:58:40;2.92;;;1.00;;
75129;SDS011;63703;44.716;37.846;2022-10-12T07:01:07;5.15;;;0.95;;
75129;SDS011;63703;44.716;37.846;2022-10-12T07:03:34;5.28;;;1.27;;
75129;SDS011;63703;44.716;37.846;2022-10-12T07:06:11;11.45;;;0.52;;
75129;SDS011;63703;44.716;37.846;2022-10-12T07:08:39;8.48;;;1.83;;
75129;SDS011;63703;44.716;37.846;2022-10-12T07:11:06;3.80;;;1.15;;
75129;SDS011;63703;44.716;37.846;2022-10-12T07:13:33;6.32;;;1.25;;
75129;SDS011;63703;44.716;37.846;2022-10-12T07:16:00;5.75;;;0.52;;
75129;SDS011;63703;44.716;37.846;2022-10-12T07:18:26;2.15;;;0.45;;
75129;SDS011;63703;44.716;37.846;2022-10-12T07:20:55;3.30;;;0.85;;
75129;SDS011;63703;44.716;37.846;2022-10-12T07:23:22;4.30;;;0.98;;
75129;SDS011;63703;44.716;37.846;2022-10-12T07:25:49;3.90;;;1.20;;
75129;SDS011;63703;44.716;37.846;2022-10-12T07:28:16;3.30;;;0.57;;
75129;SDS011;63703;44.716;37.846;2022-10-12T07:30:43;2.17;;;0.52;;
75129;SDS011;63703;44.716;37.846;2022-10-12T07:33:10;2.83;;;0.75;;
75129;SDS011;63703;44.716;37.846;2022-10-12T07:35:36;4.40;;;0.38;;
75129;SDS011;63703;44.716;37.846;2022-10-12T07:38:02;4.32;;;0.43;;
75129;SDS011;63703;44.716;37.846;2022-10-12T07:40:28;4.80;;;1.15;;
75129;SDS011;63703;44.716;37.846;2022-10-12T07:42:55;5.93;;;0.82;;
75129;SDS011;63703;44.716;37.846;2022-10-12T07:45:21;5.75;;;1.00;;
75129;SDS011;63703;44.716;37.846;2022-10-12T07:47:47;4.68;;;0.85;;
75129;SDS011;63703;44.716;37.846;2022-10-12T07:50:13;16.38;;;1.80;;
75129;SDS011;63703;44.716;37.846;2022-10-12T07:52:39;3.33;;;0.40;;
75129;SDS011;63703;44.716;37.846;2022-10-12T07:55:05;2.50;;;0.73;;
75129;SDS011;63703;44.716;37.846;2022-10-12T07:57:32;8.57;;;1.38;;
75129;SDS011;63703;44.716;37.846;2022-10-12T07:59:58;3.15;;;0.57;;
75129;SDS011;63703;44.716;37.846;2022-10-12T08:02:24;1.05;;;0.25;;
75129;SDS011;63703;44.716;37.846;2022-10-12T08:04:50;4.68;;;0.13;;
75129;SDS011;63703;44.716;37.846;2022-10-12T08:07:16;5.15;;;0.60;;
75129;SDS011;63703;44.716;37.846;2022-10-12T08:09:42;3.22;;;0.93;;
75129;SDS011;63703;44.716;37.846;2022-10-12T08:12:09;3.15;;;0.85;;
75129;SDS011;63703;44.716;37.846;2022-10-12T08:14:35;2.47;;;0.32;;
75129;SDS011;63703;44.716;37.846;2022-10-12T08:17:02;7.03;;;0.55;;
75129;SDS011;63703;44.716;37.846;2022-10-12T08:19:29;6.28;;;0.30;;
75129;SDS011;63703;44.716;37.846;2022-10-12T08:21:55;6.07;;;0.63;;
75129;SDS011;63703;44.716;37.846;2022-10-12T08:24:21;1.73;;;0.17;;
75129;SDS011;63703;44.716;37.846;2022-10-12T08:26:47;2.15;;;0.93;;
75129;SDS011;63703;44.716;37.846;2022-10-12T08:29:13;6.53;;;0.70;;
75129;SDS011;63703;44.716;37.846;2022-10-12T08:31:39;4.18;;;0.90;;
75129;SDS011;63703;44.716;37.846;2022-10-12T08:34:05;2.92;;;0.30;;
75129;SDS011;63703;44.716;37.846;2022-10-12T08:36:31;2.28;;;0.20;;
75129;SDS011;63703;44.716;37.846;2022-10-12T08:38:57;6.38;;;0.73;;
75129;SDS011;63703;44.716;37.846;2022-10-12T08:44:26;8.02;;;0.82;;
75129;SDS011;63703;44.716;37.846;2022-10-12T08:47:04;4.47;;;0.98;;
75129;SDS011;63703;44.716;37.846;2022-10-12T08:49:33;2.47;;;0.82;;
75129;SDS011;63703;44.716;37.846;2022-10-12T08:52:02;3.25;;;0.57;;
75129;SDS011;63703;44.716;37.846;2022-10-12T08:54:32;2.13;;;0.45;;
75129;SDS011;63703;44.716;37.846;2022-10-12T08:57:03;3.38;;;0.70;;
75129;SDS011;63703;44.716;37.846;2022-10-12T08:59:32;2.88;;;0.68;;
75129;SDS011;63703;44.716;37.846;2022-10-12T09:04:44;7.05;;;0.47;;
75129;SDS011;63703;44.716;37.846;2022-10-12T09:08:00;1.38;;;0.20;;
75129;SDS011;63703;44.716;37.846;2022-10-12T09:10:22;4.00;;;0.90;;
75129;SDS011;63703;44.716;37.846;2022-10-12T09:15:32;6.97;;;0.70;;
75129;SDS011;63703;44.716;37.846;2022-10-12T09:18:04;5.85;;;0.30;;
75129;SDS011;63703;44.716;37.846;2022-10-12T09:20:47;3.22;;;1.10;;
75129;SDS011;63703;44.716;37.846;2022-10-12T09:25:40;2.53;;;0.93;;
75129;SDS011;63703;44.716;37.846;2022-10-12T09:28:25;3.65;;;0.30;;
75129;SDS011;63703;44.716;37.846;2022-10-12T09:31:01;4.68;;;0.75;;
75129;SDS011;63703;44.716;37.846;2022-10-12T09:36:20;1.92;;;0.50;;
75129;SDS011;63703;44.716;37.846;2022-10-12T09:38:48;3.67;;;0.95;;
75129;SDS011;63703;44.716;37.846;2022-10-12T09:41:15;7.95;;;0.40;;
75129;SDS011;63703;44.716;37.846;2022-10-12T09:43:54;3.78;;;0.55;;
75129;SDS011;63703;44.716;37.846;2022-10-12T09:46:27;2.65;;;0.45;;
75129;SDS011;63703;44.716;37.846;2022-10-12T09:49:10;2.85;;;0.50;;
75129;SDS011;63703;44.716;37.846;2022-10-12T09:51:36;3.10;;;0.60;;
75129;SDS011;63703;44.716;37.846;2022-10-12T09:54:02;5.72;;;0.32;;
75129;SDS011;63703;44.716;37.846;2022-10-12T09:56:45;3.63;;;0.40;;
75129;SDS011;63703;44.716;37.846;2022-10-12T09:59:33;5.45;;;0.40;;
75129;SDS011;63703;44.716;37.846;2022-10-12T10:04:35;2.20;;;0.57;;
75129;SDS011;63703;44.716;37.846;2022-10-12T10:09:46;2.25;;;0.40;;
75129;SDS011;63703;44.716;37.846;2022-10-12T10:12:19;3.40;;;0.45;;
75129;SDS011;63703;44.716;37.846;2022-10-12T10:14:49;4.65;;;0.75;;
75129;SDS011;63703;44.716;37.846;2022-10-12T10:17:22;3.30;;;0.80;;
75129;SDS011;63703;44.716;37.846;2022-10-12T10:19:50;4.38;;;0.55;;
75129;SDS011;63703;44.716;37.846;2022-10-12T10:22:17;2.67;;;0.85;;
75129;SDS011;63703;44.716;37.846;2022-10-12T10:24:54;4.80;;;0.20;;
75129;SDS011;63703;44.716;37.846;2022-10-12T10:27:30;2.90;;;0.82;;
75129;SDS011;63703;44.716;37.846;2022-10-12T10:32:41;5.85;;;1.10;;
75129;SDS011;63703;44.716;37.846;2022-10-12T10:37:33;2.72;;;0.43;;
75129;SDS011;63703;44.716;37.846;2022-10-12T10:40:00;3.88;;;0.57;;
75129;SDS011;63703;44.716;37.846;2022-10-12T10:42:27;2.50;;;0.60;;
75129;SDS011;63703;44.716;37.846;2022-10-12T10:44:57;2.95;;;1.35;;
75129;SDS011;63703;44.716;37.846;2022-10-12T10:47:25;2.58;;;0.85;;
75129;SDS011;63703;44.716;37.846;2022-10-12T10:49:54;2.80;;;1.17;;
75129;SDS011;63703;44.716;37.846;2022-10-12T10:52:29;6.25;;;0.30;;
75129;SDS011;63703;44.716;37.846;2022-10-12T10:57:48;7.93;;;0.75;;
75129;SDS011;63703;44.716;37.846;2022-10-12T11:00:23;4.68;;;0.85;;
75129;SDS011;63703;44.716;37.846;2022-10-12T11:05:34;2.90;;;0.40;;
75129;SDS011;63703;44.716;37.846;2022-10-12T11:08:27;2.40;;;0.13;;
75129;SDS011;63703;44.716;37.846;2022-10-12T11:10:56;2.95;;;0.63;;
75129;SDS011;63703;44.716;37.846;2022-10-12T11:13:30;2.83;;;0.52;;
75129;SDS011;63703;44.716;37.846;2022-10-12T11:15:59;4.90;;;0.77;;
75129;SDS011;63703;44.716;37.846;2022-10-12T11:18:40;3.17;;;0.55;;
75129;SDS011;63703;44.716;37.846;2022-10-12T11:21:11;2.78;;;0.63;;
75129;SDS011;63703;44.716;37.846;2022-10-12T11:29:23;2.35;;;0.75;;
75129;SDS011;63703;44.716;37.846;2022-10-12T11:31:55;3.45;;;0.32;;
75129;SDS011;63703;44.716;37.846;2022-10-12T11:34:27;3.67;;;1.10;;
75129;SDS011;63703;44.716;37.846;2022-10-12T11:37:01;3.33;;;0.75;;
75129;SDS011;63703;44.716;37.846;2022-10-12T11:39:33;2.97;;;0.52;;
75129;SDS011;63703;44.716;37.846;2022-10-12T11:42:06;2.05;;;0.43;;
75129;SDS011;63703;44.716;37.846;2022-10-12T11:44:41;4.20;;;0.68;;
75129;SDS011;63703;44.716;37.846;2022-10-12T11:47:12;3.25;;;0.98;;
75129;SDS011;63703;44.716;37.846;2022-10-12T11:49:56;3.47;;;0.98;;
75129;SDS011;63703;44.716;37.846;2022-10-12T11:52:24;4.70;;;0.40;;
75129;SDS011;63703;44.716;37.846;2022-10-12T11:54:58;4.00;;;0.40;;
75129;SDS011;63703;44.716;37.846;2022-10-12T11:57:36;4.00;;;1.20;;
75129;SDS011;63703;44.716;37.846;2022-10-12T12:00:16;3.38;;;0.80;;
75129;SDS011;63703;44.716;37.846;2022-10-12T12:03:04;4.55;;;0.40;;
75129;SDS011;63703;44.716;37.846;2022-10-12T12:05:39;5.50;;;0.55;;
75129;SDS011;63703;44.716;37.846;2022-10-12T12:08:05;3.35;;;0.52;;
75129;SDS011;63703;44.716;37.846;2022-10-12T12:10:49;2.90;;;0.75;;
75129;SDS011;63703;44.716;37.846;2022-10-12T12:13:21;4.25;;;0.32;;
75129;SDS011;63703;44.716;37.846;2022-10-12T12:18:21;2.75;;;0.43;;
75129;SDS011;63703;44.716;37.846;2022-10-12T12:28:38;8.13;;;1.17;;
75129;SDS011;63703;44.716;37.846;2022-10-12T12:33:38;5.40;;;0.75;;
75129;SDS011;63703;44.716;37.846;2022-10-12T12:36:14;3.13;;;0.68;;
75129;SDS011;63703;44.716;37.846;2022-10-12T12:38:54;2.85;;;0.43;;
75129;SDS011;63703;44.716;37.846;2022-10-12T12:41:21;6.55;;;0.32;;
75129;SDS011;63703;44.716;37.846;2022-10-12T12:46:18;2.83;;;0.47;;
75129;SDS011;63703;44.716;37.846;2022-10-12T12:53:46;5.57;;;0.77;;
75129;SDS011;63703;44.716;37.846;2022-10-12T12:59:03;2.13;;;0.22;;
75129;SDS011;63703;44.716;37.846;2022-10-12T13:15:22;2.53;;;0.65;;
75129;SDS011;63703;44.716;37.846;2022-10-12T13:20:18;2.95;;;0.32;;
75129;SDS011;63703;44.716;37.846;2022-10-12T13:22:48;2.95;;;0.52;;
75129;SDS011;63703;44.716;37.846;2022-10-12T13:28:02;3.05;;;0.40;;
75129;SDS011;63703;44.716;37.846;2022-10-12T13:30:39;2.28;;;0.45;;
75129;SDS011;63703;44.716;37.846;2022-10-12T13:33:31;4.65;;;0.43;;
75129;SDS011;63703;44.716;37.846;2022-10-12T13:36:25;3.45;;;0.47;;
75129;SDS011;63703;44.716;37.846;2022-10-12T13:38:54;1.42;;;0.10;;
75129;SDS011;63703;44.716;37.846;2022-10-12T13:41:21;1.40;;;0.32;;
75129;SDS011;63703;44.716;37.846;2022-10-12T13:43:56;2.55;;;0.57;;
75129;SDS011;63703;44.716;37.846;2022-10-12T13:46:43;1.25;;;0.10;;
75129;SDS011;63703;44.716;37.846;2022-10-12T13:49:13;4.30;;;0.45;;
75129;SDS011;63703;44.716;37.846;2022-10-12T13:51:47;1.67;;;0.22;;
75129;SDS011;63703;44.716;37.846;2022-10-12T13:54:16;1.85;;;0.40;;
75129;SDS011;63703;44.716;37.846;2022-10-12T13:56:48;2.05;;;0.55;;
75129;SDS011;63703;44.716;37.846;2022-10-12T13:59:19;2.42;;;0.68;;
75129;SDS011;63703;44.716;37.846;2022-10-12T14:01:48;1.98;;;0.28;;
75129;SDS011;63703;44.716;37.846;2022-10-12T14:04:16;2.15;;;0.13;;
75129;SDS011;63703;44.716;37.846;2022-10-12T14:06:44;2.25;;;0.10;;
75129;SDS011;63703;44.716;37.846;2022-10-12T14:09:17;4.18;;;0.88;;
75129;SDS011;63703;44.716;37.846;2022-10-12T14:11:45;2.45;;;0.32;;
75129;SDS011;63703;44.716;37.846;2022-10-12T14:14:18;1.70;;;0.20;;
75129;SDS011;63703;44.716;37.846;2022-10-12T14:16:58;2.97;;;0.80;;
75129;SDS011;63703;44.716;37.846;2022-10-12T14:22:05;3.03;;;0.20;;
75129;SDS011;63703;44.716;37.846;2022-10-12T14:24:33;2.22;;;0.30;;
75129;SDS011;63703;44.716;37.846;2022-10-12T14:27:01;1.63;;;0.30;;
75129;SDS011;63703;44.716;37.846;2022-10-12T14:29:33;5.25;;;1.25;;
75129;SDS011;63703;44.716;37.846;2022-10-12T14:32:06;3.65;;;0.88;;
75129;SDS011;63703;44.716;37.846;2022-10-12T14:36:09;6.65;;;1.38;;
75129;SDS011;63703;44.716;37.846;2022-10-12T14:37:54;6.30;;;0.70;;
75129;SDS011;63703;44.716;37.846;2022-10-12T14:40:23;4.32;;;0.32;;
75129;SDS011;63703;44.716;37.846;2022-10-12T14:45:39;3.58;;;0.98;;
75129;SDS011;63703;44.716;37.846;2022-10-12T14:48:18;4.88;;;0.80;;
75129;SDS011;63703;44.716;37.846;2022-10-12T14:50:44;2.17;;;0.52;;
75129;SDS011;63703;44.716;37.846;2022-10-12T14:53:10;2.47;;;0.93;;
75129;SDS011;63703;44.716;37.846;2022-10-12T14:55:36;3.63;;;0.95;;
75129;SDS011;63703;44.716;37.846;2022-10-12T14:58:02;3.70;;;0.75;;
75129;SDS011;63703;44.716;37.846;2022-10-12T15:00:32;2.72;;;0.73;;
75129;SDS011;63703;44.716;37.846;2022-10-12T15:03:00;5.43;;;1.77;;
75129;SDS011;63703;44.716;37.846;2022-10-12T15:05:27;3.03;;;0.90;;
75129;SDS011;63703;44.716;37.846;2022-10-12T15:07:56;3.92;;;1.15;;
75129;SDS011;63703;44.716;37.846;2022-10-12T15:10:22;6.03;;;0.90;;
75129;SDS011;63703;44.716;37.846;2022-10-12T15:12:48;2.63;;;0.50;;
75129;SDS011;63703;44.716;37.846;2022-10-12T15:15:56;3.17;;;1.65;;
75129;SDS011;63703;44.716;37.846;2022-10-12T15:18:02;8.68;;;0.65;;
75129;SDS011;63703;44.716;37.846;2022-10-12T15:20:28;3.28;;;1.45;;
75129;SDS011;63703;44.716;37.846;2022-10-12T15:22:55;2.40;;;0.90;;
75129;SDS011;63703;44.716;37.846;2022-10-12T15:27:58;2.15;;;0.82;;
75129;SDS011;63703;44.716;37.846;2022-10-12T15:30:24;2.35;;;0.65;;
75129;SDS011;63703;44.716;37.846;2022-10-12T15:32:50;2.22;;;1.02;;
75129;SDS011;63703;44.716;37.846;2022-10-12T15:37:44;3.15;;;1.20;;
75129;SDS011;63703;44.716;37.846;2022-10-12T15:40:10;4.22;;;0.80;;
75129;SDS011;63703;44.716;37.846;2022-10-12T15:42:36;4.38;;;1.08;;
75129;SDS011;63703;44.716;37.846;2022-10-12T15:45:15;3.50;;;0.80;;
75129;SDS011;63703;44.716;37.846;2022-10-12T15:47:43;2.10;;;0.95;;
75129;SDS011;63703;44.716;37.846;2022-10-12T15:50:09;2.08;;;1.23;;
75129;SDS011;63703;44.716;37.846;2022-10-12T15:52:34;2.60;;;1.60;;
75129;SDS011;63703;44.716;37.846;2022-10-12T15:55:00;3.35;;;1.15;;
75129;SDS011;63703;44.716;37.846;2022-10-12T15:57:26;2.15;;;0.85;;
75129;SDS011;63703;44.716;37.846;2022-10-12T15:59:51;2.33;;;0.68;;
75129;SDS011;63703;44.716;37.846;2022-10-12T16:02:17;2.42;;;1.35;;
75129;SDS011;63703;44.716;37.846;2022-10-12T16:04:43;4.03;;;1.50;;
75129;SDS011;63703;44.716;37.846;2022-10-12T16:07:08;5.15;;;1.48;;
75129;SDS011;63703;44.716;37.846;2022-10-12T16:09:34;6.45;;;1.85;;
75129;SDS011;63703;44.716;37.846;2022-10-12T16:11:59;5.30;;;2.35;;
75129;SDS011;63703;44.716;37.846;2022-10-12T16:14:25;6.72;;;2.22;;
75129;SDS011;63703;44.716;37.846;2022-10-12T16:16:51;6.63;;;2.47;;
75129;SDS011;63703;44.716;37.846;2022-10-12T16:19:17;7.03;;;2.17;;
75129;SDS011;63703;44.716;37.846;2022-10-12T16:21:42;5.40;;;2.63;;
75129;SDS011;63703;44.716;37.846;2022-10-12T16:24:08;6.60;;;2.58;;
75129;SDS011;63703;44.716;37.846;2022-10-12T16:26:34;6.80;;;2.08;;
75129;SDS011;63703;44.716;37.846;2022-10-12T16:28:59;7.57;;;1.40;;
75129;SDS011;63703;44.716;37.846;2022-10-12T16:31:25;7.07;;;2.00;;
75129;SDS011;63703;44.716;37.846;2022-10-12T16:33:51;5.68;;;2.35;;
75129;SDS011;63703;44.716;37.846;2022-10-12T16:36:16;8.65;;;2.10;;
75129;SDS011;63703;44.716;37.846;2022-10-12T16:38:42;6.03;;;1.80;;
75129;SDS011;63703;44.716;37.846;2022-10-12T16:41:11;4.38;;;1.88;;